Time;durP1;ratioP1;P1;durP2;ratioP2;P2;SDS_P1;SDS_P2;PMS_P1;PMS_P2;Temp;Humidity;BMP_temperature;BMP_pressure;BME280_temperature;BME280_humidity;BME280_pressure;Samples;Min_cycle;Max_cycle;Signal;HPM_P1;HPM_P2
2023/09/17 00:01:04;;;;;;;;;;;;;;;;;;5040984;27;89476;-71
2023/09/17 00:03:29;;;;;;;;;;;;;;;;;;5040043;27;89614;-65
2023/09/17 00:05:54;;;;;;;;;;;;;;;;;;5034367;27;89549;-72
2023/09/17 00:08:19;;;;;;;;;;;;;;;;;;5038172;27;89515;-67
2023/09/17 00:10:45;;;;;;;;;;;;;;;;;;5034423;27;89927;-62
2023/09/17 00:13:10;;;;;;;;;;;;;;;;;;5038841;27;90306;-64
2023/09/17 00:15:36;;;;;;;;;;;;;;;;;;5033581;27;89516;-65
2023/09/17 00:18:02;;;;;;;;;;;;;;;;;;5033648;27;90156;-66
2023/09/17 00:20:27;;;;;;;;;;;;;;;;;;5031569;27;89894;-64
2023/09/17 00:22:52;;;;;;;;;;;;;;;;;;5033803;27;89763;-63
2023/09/17 00:25:17;;;;;;;;;;;;;;;;;;5036281;27;89318;-63
2023/09/17 00:27:43;;;;;;;;;;;;;;;;;;5034830;27;89389;-64
2023/09/17 00:30:09;;;;;;;;;;;;;;;;;;5044353;27;89744;-62
2023/09/17 00:32:34;;;;;;;;;;;;;;;;;;5038123;27;90521;-67
2023/09/17 00:34:59;;;;;;;;;;;;;;;;;;5030557;27;90490;-66
2023/09/17 00:37:24;;;;;;;;;;;;;;;;;;5038921;27;90456;-63
2023/09/17 00:39:49;;;;;;;;;;;;;;;;;;5036843;27;89609;-70
2023/09/17 00:42:15;;;;;;;;;;;;;;;;;;5037760;27;90820;-65
2023/09/17 00:44:40;;;;;;;;;;;;;;;;;;5034673;27;92414;-70
2023/09/17 00:47:07;;;;;;;;;;;;;;;;;;5033499;27;89281;-64
2023/09/17 00:49:32;;;;;;;;;;;;;;;;;;5039697;27;89354;-62
2023/09/17 00:51:58;;;;;;;;;;;;;;;;;;5039211;27;90168;-63
2023/09/17 00:54:25;;;;;;;;;;;;;;;;;;5035086;27;89061;-63
2023/09/17 00:56:51;;;;;;;;;;;;;;;;;;5037930;27;89138;-70
2023/09/17 00:59:16;;;;;;;;;;;;;;;;;;5037308;27;89732;-70
2023/09/17 01:01:42;;;;;;;;;;;;;;;;;;5045394;27;90797;-66
2023/09/17 01:04:08;;;;;;;;;;;;;;;;;;5038569;27;91441;-72
2023/09/17 01:06:35;;;;;;;;;;;;;;;;;;5032624;27;89561;-66
2023/09/17 01:09:00;;;;;;;;;;;;;;;;;;5039914;27;90257;-65
2023/09/17 01:11:25;;;;;;;;;;;;;;;;;;5038135;27;89283;-68
2023/09/17 01:14:00;;;;;;;;;;;;;;;;;;5042874;27;90457;-68
2023/09/17 01:16:26;;;;;;;;;;;;;;;;;;5041342;27;91096;-68
2023/09/17 01:18:53;;;;;;;;;;;;;;;;;;5039135;27;90398;-68
2023/09/17 01:21:26;;;;;;;;;;;;;;;;;;5039417;27;91279;-71
2023/09/17 01:24:13;;;;;;;;;;;;;;;;;;5040934;27;89347;-70
2023/09/17 01:26:39;;;;;;;;;;;;;;;;;;5039451;27;89713;-66
2023/09/17 01:29:05;;;;;;;;;;;;;;;;;;5036126;27;89617;-71
2023/09/17 01:31:30;;;;;;;;;;;;;;;;;;5045657;27;89734;-71
2023/09/17 01:33:55;;;;;;;;;;;;;;;;;;5038929;27;89079;-70
2023/09/17 01:36:27;;;;;;;;;;;;;;;;;;5038222;27;91499;-72
2023/09/17 01:38:54;;;;;;;;;;;;;;;;;;5042990;27;90293;-72
2023/09/17 01:41:19;;;;;;;;;;;;;;;;;;5044764;27;89642;-68
2023/09/17 01:43:45;;;;;;;;;;;;;;;;;;5039796;27;89538;-64
2023/09/17 01:46:11;;;;;;;;;;;;;;;;;;5038787;27;89577;-62
2023/09/17 01:48:38;;;;;;;;;;;;;;;;;;5038146;27;90226;-63
2023/09/17 01:51:03;;;;;;;;;;;;;;;;;;5042905;27;89390;-63
2023/09/17 01:53:29;;;;;;;;;;;;;;;;;;5037860;27;89458;-63
2023/09/17 01:55:56;;;;;;;;;;;;;;;;;;5038721;27;89572;-69
2023/09/17 01:58:22;;;;;;;;;;;;;;;;;;5040492;27;89474;-66
2023/09/17 02:00:49;;;;;;;;;;;;;;;;;;5040575;27;89624;-68
2023/09/17 02:03:14;;;;;;;;;;;;;;;;;;5039950;27;89342;-67
2023/09/17 02:05:39;;;;;;;;;;;;;;;;;;5040322;27;89648;-70
2023/09/17 02:08:05;;;;;;;;;;;;;;;;;;5036956;27;89645;-73
2023/09/17 02:10:30;;;;;;;;;;;;;;;;;;5040947;27;90196;-72
2023/09/17 02:12:55;;;;;;;;;;;;;;;;;;5037285;27;89959;-71
2023/09/17 02:15:20;;;;;;;;;;;;;;;;;;5040165;27;90914;-69
2023/09/17 02:17:45;;;;;;;;;;;;;;;;;;5034174;27;90114;-71
2023/09/17 02:20:11;;;;;;;;;;;;;;;;;;5041023;27;89084;-66
2023/09/17 02:22:39;;;;;;;;;;;;;;;;;;5043080;27;89469;-65
2023/09/17 02:25:05;;;;;;;;;;;;;;;;;;5036824;27;89131;-67
2023/09/17 02:27:31;;;;;;;;;;;;;;;;;;5038314;27;90896;-69
2023/09/17 02:29:56;;;;;;;;;;;;;;;;;;5039541;27;89645;-65
2023/09/17 02:32:21;;;;;;;;;;;;;;;;;;5035096;27;89573;-69
2023/09/17 02:34:46;;;;;;;;;;;;;;;;;;5036362;27;89513;-63
2023/09/17 02:37:12;;;;;;;;;;;;;;;;;;5039140;27;90016;-63
2023/09/17 02:39:37;;;;;;;;;;;;;;;;;;5043437;27;89124;-71
2023/09/17 02:42:03;;;;;;;;;;;;;;;;;;5040331;27;89556;-72
2023/09/17 02:44:28;;;;;;;;;;;;;;;;;;5041777;27;89288;-73
2023/09/17 02:46:53;;;;;;;;;;;;;;;;;;5038123;27;90039;-69
2023/09/17 02:49:21;;;;;;;;;;;;;;;;;;5036873;27;89946;-72
2023/09/17 02:51:47;;;;;;;;;;;;;;;;;;5032874;27;89030;-63
2023/09/17 02:54:13;;;;;;;;;;;;;;;;;;5038066;27;90680;-63
2023/09/17 02:56:38;;;;;;;;;;;;;;;;;;5043677;27;89645;-65
2023/09/17 02:59:03;;;;;;;;;;;;;;;;;;5039953;27;89463;-69
2023/09/17 03:01:28;;;;;;;;;;;;;;;;;;5037212;27;89698;-63
2023/09/17 03:03:53;;;;;;;;;;;;;;;;;;5033609;27;89789;-62
2023/09/17 03:06:19;;;;;;;;;;;;;;;;;;5035879;27;89468;-68
2023/09/17 03:08:44;;;;;;;;;;;;;;;;;;5034631;27;92315;-68
2023/09/17 03:11:12;;;;;;;;;;;;;;;;;;5038955;27;89468;-63
2023/09/17 03:13:37;;;;;;;;;;;;;;;;;;5038861;27;90972;-71
2023/09/17 03:16:03;;;;;;;;;;;;;;;;;;5032168;27;89276;-63
2023/09/17 03:18:28;;;;;;;;;;;;;;;;;;5039234;27;89243;-67
2023/09/17 03:20:53;;;;;;;;;;;;;;;;;;5039490;27;90924;-69
2023/09/17 03:23:18;;;;;;;;;;;;;;;;;;5037488;27;89701;-68
2023/09/17 03:25:44;;;;;;;;;;;;;;;;;;5040549;27;89461;-64
2023/09/17 03:28:11;;;;;;;;;;;;;;;;;;5036411;27;90201;-66
2023/09/17 03:30:37;;;;;;;;;;;;;;;;;;5047144;27;89321;-68
2023/09/17 03:33:03;;;;;;;;;;;;;;;;;;5041129;27;89781;-70
2023/09/17 03:35:28;;;;;;;;;;;;;;;;;;5038100;27;90302;-72
2023/09/17 03:37:53;;;;;;;;;;;;;;;;;;5032090;27;91205;-72
2023/09/17 03:40:19;;;;;;;;;;;;;;;;;;5039245;27;91020;-72
2023/09/17 03:42:46;;;;;;;;;;;;;;;;;;5043529;27;90528;-71
2023/09/17 03:45:12;;;;;;;;;;;;;;;;;;5039560;27;89321;-71
2023/09/17 03:47:37;;;;;;;;;;;;;;;;;;5042566;27;89938;-68
2023/09/17 03:50:06;;;;;;;;;;;;;;;;;;5038267;27;89435;-67
2023/09/17 03:52:32;;;;;;;;;;;;;;;;;;5042019;27;90067;-71
2023/09/17 03:54:58;;;;;;;;;;;;;;;;;;5034955;27;89274;-67
2023/09/17 03:57:23;;;;;;;;;;;;;;;;;;5039506;27;89686;-65
2023/09/17 03:59:48;;;;;;;;;;;;;;;;;;5033943;27;90849;-69
2023/09/17 04:02:14;;;;;;;;;;;;;;;;;;5031572;27;89208;-64
2023/09/17 04:04:39;;;;;;;;;;;;;;;;;;5041274;27;89245;-68
2023/09/17 04:07:04;;;;;;;;;;;;;;;;;;5033411;27;89817;-67
2023/09/17 04:09:30;;;;;;;;;;;;;;;;;;5041171;27;89841;-64
2023/09/17 04:11:55;;;;;;;;;;;;;;;;;;5039545;27;89441;-69
2023/09/17 04:14:21;;;;;;;;;;;;;;;;;;5038470;27;89555;-71
2023/09/17 04:16:46;;;;;;;;;;;;;;;;;;5035325;27;89324;-71
2023/09/17 04:19:11;;;;;;;;;;;;;;;;;;5039243;27;89533;-72
2023/09/17 04:21:36;;;;;;;;;;;;;;;;;;5036740;27;89414;-72
2023/09/17 04:24:03;;;;;;;;;;;;;;;;;;5040795;27;89593;-72
2023/09/17 04:26:29;;;;;;;;;;;;;;;;;;5041268;27;90829;-72
2023/09/17 04:28:54;;;;;;;;;;;;;;;;;;5035474;27;89979;-68
2023/09/17 04:31:19;;;;;;;;;;;;;;;;;;5039581;27;89827;-68
2023/09/17 04:33:44;;;;;;;;;;;;;;;;;;5035129;27;89797;-66
2023/09/17 04:36:10;;;;;;;;;;;;;;;;;;5038391;27;89078;-66
2023/09/17 04:38:35;;;;;;;;;;;;;;;;;;5027035;27;89536;-68
2023/09/17 04:41:00;;;;;;;;;;;;;;;;;;5039795;27;89867;-71
2023/09/17 04:43:26;;;;;;;;;;;;;;;;;;5055463;27;89500;-65
2023/09/17 04:45:51;;;;;;;;;;;;;;;;;;5044060;27;90561;-66
2023/09/17 04:48:17;;;;;;;;;;;;;;;;;;5043247;27;89586;-68
2023/09/17 04:50:45;;;;;;;;;;;;;;;;;;5041658;27;90562;-69
2023/09/17 04:53:10;;;;;;;;;;;;;;;;;;5035086;27;90748;-64
2023/09/17 04:55:35;;;;;;;;;;;;;;;;;;5045688;27;89644;-72
2023/09/17 04:58:01;;;;;;;;;;;;;;;;;;5039412;27;89735;-71
2023/09/17 05:00:26;;;;;;;;;;;;;;;;;;5041484;27;89994;-63
2023/09/17 05:02:51;;;;;;;;;;;;;;;;;;5040578;27;90073;-63
2023/09/17 05:05:18;;;;;;;;;;;;;;;;;;5035270;27;89513;-65
2023/09/17 05:07:44;;;;;;;;;;;;;;;;;;5038457;27;91299;-64
2023/09/17 05:10:09;;;;;;;;;;;;;;;;;;5042041;27;88888;-63
2023/09/17 05:12:34;;;;;;;;;;;;;;;;;;5043764;27;90624;-63
2023/09/17 05:15:00;;;;;;;;;;;;;;;;;;5042309;27;89083;-70
2023/09/17 05:17:25;;;;;;;;;;;;;;;;;;5046399;27;90472;-71
2023/09/17 05:19:50;;;;;;;;;;;;;;;;;;5043451;27;90690;-67
2023/09/17 05:22:15;;;;;;;;;;;;;;;;;;5039897;27;89783;-71
2023/09/17 05:24:41;;;;;;;;;;;;;;;;;;5045652;27;89275;-65
2023/09/17 05:27:06;;;;;;;;;;;;;;;;;;5039922;27;89623;-69
2023/09/17 05:29:31;;;;;;;;;;;;;;;;;;5039300;27;89212;-70
2023/09/17 05:31:56;;;;;;;;;;;;;;;;;;5036352;27;89033;-71
2023/09/17 05:34:22;;;;;;;;;;;;;;;;;;5044063;27;89169;-65
2023/09/17 05:36:47;;;;;;;;;;;;;;;;;;5032976;27;89519;-66
2023/09/17 05:39:13;;;;;;;;;;;;;;;;;;5032730;27;89155;-69
2023/09/17 05:41:39;;;;;;;;;;;;;;;;;;5040794;27;89900;-70
2023/09/17 05:44:04;;;;;;;;;;;;;;;;;;5038676;27;92707;-72
2023/09/17 05:46:33;;;;;;;;;;;;;;;;;;5039273;27;89216;-70
2023/09/17 05:48:58;;;;;;;;;;;;;;;;;;5041495;27;89354;-78
2023/09/17 05:51:23;;;;;;;;;;;;;;;;;;5044112;27;91801;-67
2023/09/17 05:53:48;;;;;;;;;;;;;;;;;;5037518;27;89064;-75
2023/09/17 05:56:14;;;;;;;;;;;;;;;;;;5043146;27;89297;-65
2023/09/17 05:58:39;;;;;;;;;;;;;;;;;;5043158;27;89278;-73
2023/09/17 06:01:04;;;;;;;;;;;;;;;;;;5043300;27;89514;-69
2023/09/17 06:03:30;;;;;;;;;;;;;;;;;;5040709;27;90624;-68
2023/09/17 06:05:55;;;;;;;;;;;;;;;;;;5037210;27;92232;-65
2023/09/17 06:08:21;;;;;;;;;;;;;;;;;;5039958;27;89307;-74
2023/09/17 06:10:46;;;;;;;;;;;;;;;;;;5039286;27;89464;-64
2023/09/17 06:13:11;;;;;;;;;;;;;;;;;;5037192;27;89477;-65
2023/09/17 06:15:37;;;;;;;;;;;;;;;;;;5041248;27;89481;-71
2023/09/17 06:18:02;;;;;;;;;;;;;;;;;;5040215;27;90464;-70
2023/09/17 06:20:27;;;;;;;;;;;;;;;;;;5041149;27;89570;-70
2023/09/17 06:22:53;;;;;;;;;;;;;;;;;;5038694;27;89306;-70
2023/09/17 06:25:19;;;;;;;;;;;;;;;;;;5038186;27;89657;-65
2023/09/17 06:27:44;;;;;;;;;;;;;;;;;;5038386;27;89153;-66
2023/09/17 06:30:09;;;;;;;;;;;;;;;;;;5039260;27;89593;-66
2023/09/17 06:32:35;;;;;;;;;;;;;;;;;;5043877;27;89228;-68
2023/09/17 06:35:00;;;;;;;;;;;;;;;;;;5042086;27;89162;-67
2023/09/17 06:37:26;;;;;;;;;;;;;;;;;;5046409;27;89931;-72
2023/09/17 06:39:51;;;;;;;;;;;;;;;;;;5047955;27;90595;-66
2023/09/17 06:42:17;;;;;;;;;;;;;;;;;;5041304;27;89920;-68
2023/09/17 06:44:42;;;;;;;;;;;;;;;;;;5042318;27;91552;-64
2023/09/17 06:47:07;;;;;;;;;;;;;;;;;;5036059;27;89200;-79
2023/09/17 06:49:34;;;;;;;;;;;;;;;;;;5041098;27;89539;-70
2023/09/17 06:51:59;;;;;;;;;;;;;;;;;;5040738;27;90172;-66
2023/09/17 06:54:24;;;;;;;;;;;;;;;;;;5038309;27;89350;-68
2023/09/17 06:56:51;;;;;;;;;;;;;;;;;;5036247;27;89499;-73
2023/09/17 06:59:17;;;;;;;;;;;;;;;;;;5038399;27;89733;-74
2023/09/17 07:01:45;;;;;;;;;;;;;;;;;;5045820;27;90029;-63
2023/09/17 07:04:10;;;;;;;;;;;;;;;;;;5033215;27;89989;-67
2023/09/17 07:06:35;;;;;;;;;;;;;;;;;;5036186;27;89665;-63
2023/09/17 07:09:01;;;;;;;;;;;;;;;;;;5036685;27;90673;-71
2023/09/17 07:11:26;;;;;;;;;;;;;;;;;;5039103;27;89851;-67
2023/09/17 07:13:52;;;;;;;;;;;;;;;;;;5034421;27;90734;-67
2023/09/17 07:16:18;;;;;;;;;;;;;;;;;;5037373;27;90706;-62
2023/09/17 07:18:44;;;;;;;;;;;;;;;;;;5042052;27;90173;-68
2023/09/17 07:21:09;;;;;;;;;;;;;;;;;;5039118;27;89711;-66
2023/09/17 07:23:35;;;;;;;;;;;;;;;;;;5035251;27;89366;-73
2023/09/17 07:26:02;;;;;;;;;;;;;;;;;;5044459;27;90414;-67
2023/09/17 07:28:27;;;;;;;;;;;;;;;;;;5042608;27;90359;-70
2023/09/17 07:30:56;;;;;;;;;;;;;;;;;;5037158;27;89776;-69
2023/09/17 07:33:22;;;;;;;;;;;;;;;;;;5034249;27;89697;-67
2023/09/17 07:35:48;;;;;;;;;;;;;;;;;;5039489;27;91544;-67
2023/09/17 07:38:13;;;;;;;;;;;;;;;;;;5033219;27;90849;-69
2023/09/17 07:40:38;;;;;;;;;;;;;;;;;;5036538;27;90974;-68
2023/09/17 07:43:04;;;;;;;;;;;;;;;;;;5034195;27;90112;-72
2023/09/17 07:45:31;;;;;;;;;;;;;;;;;;5040089;27;89763;-74
2023/09/17 07:47:56;;;;;;;;;;;;;;;;;;5035220;27;90703;-72
2023/09/17 07:50:22;;;;;;;;;;;;;;;;;;5039434;27;89434;-69
2023/09/17 07:52:47;;;;;;;;;;;;;;;;;;5037533;27;89516;-73
2023/09/17 07:55:12;;;;;;;;;;;;;;;;;;5038166;27;89514;-71
2023/09/17 07:57:38;;;;;;;;;;;;;;;;;;5034223;27;89544;-68
2023/09/17 08:00:04;;;;;;;;;;;;;;;;;;5039948;27;89512;-72
2023/09/17 08:02:29;;;;;;;;;;;;;;;;;;5040468;27;90854;-75
2023/09/17 08:04:54;;;;;;;;;;;;;;;;;;5045567;27;89185;-68
2023/09/17 08:07:19;;;;;;;;;;;;;;;;;;5041493;27;89504;-75
2023/09/17 08:09:45;;;;;;;;;;;;;;;;;;5034654;27;90840;-71
2023/09/17 08:12:10;;;;;;;;;;;;;;;;;;5037813;27;89353;-71
2023/09/17 08:14:36;;;;;;;;;;;;;;;;;;5041737;27;89578;-70
2023/09/17 08:17:02;;;;;;;;;;;;;;;;;;5045301;27;89219;-74
2023/09/17 08:19:27;;;;;;;;;;;;;;;;;;5038736;27;89646;-73
2023/09/17 08:21:52;;;;;;;;;;;;;;;;;;5040936;27;89698;-72
2023/09/17 08:24:20;;;;;;;;;;;;;;;;;;5041509;27;89560;-70
2023/09/17 08:26:47;;;;;;;;;;;;;;;;;;5045739;27;89908;-72
2023/09/17 08:29:12;;;;;;;;;;;;;;;;;;5045204;27;90198;-68
2023/09/17 08:31:38;;;;;;;;;;;;;;;;;;5041813;27;89882;-71
2023/09/17 08:34:03;;;;;;;;;;;;;;;;;;5037511;27;92106;-71
2023/09/17 08:36:29;;;;;;;;;;;;;;;;;;5045334;27;90355;-71
2023/09/17 08:38:54;;;;;;;;;;;;;;;;;;5043814;27;89201;-77
2023/09/17 08:41:22;;;;;;;;;;;;;;;;;;5042186;27;89743;-69
2023/09/17 08:43:54;;;;;;;;;;;;;;;;;;5040055;27;89661;-70
2023/09/17 08:46:20;;;;;;;;;;;;;;;;;;5041383;27;89554;-77
2023/09/17 08:48:45;;;;;;;;;;;;;;;;;;5041341;27;90724;-73
2023/09/17 08:51:13;;;;;;;;;;;;;;;;;;5038730;27;91274;-74
2023/09/17 08:53:47;;;;;;;;;;;;;;;;;;5042797;27;91412;-69
2023/09/17 08:56:13;;;;;;;;;;;;;;;;;;5039806;27;90925;-73
2023/09/17 08:58:43;;;;;;;;;;;;;;;;;;5039222;27;90700;-68
2023/09/17 09:01:11;;;;;;;;;;;;;;;;;;5043339;27;90571;-70
2023/09/17 14:14:03;;;;;;;;;;;;;;;;;;5022627;27;82724;-64
2023/09/17 14:16:28;;;;;;;;;;;;;;;;;;5005097;28;91016;-67
2023/09/17 14:18:53;;;;;;;;;;;;;;;;;;5009282;28;90744;-66
2023/09/17 14:21:18;;;;;;;;;;;;;;;;;;5006834;28;90685;-69
2023/09/17 14:23:43;;;;;;;;;;;;;;;;;;5005302;28;90477;-66
2023/09/17 14:26:09;;;;;;;;;;;;;;;;;;5014577;28;90550;-68
2023/09/17 14:28:34;;;;;;;;;;;;;;;;;;5006426;28;89751;-72
2023/09/17 14:30:59;;;;;;;;;;;;;;;;;;5006532;28;89684;-68
2023/09/17 14:33:24;;;;;;;;;;;;;;;;;;5010683;28;89491;-72
2023/09/17 14:35:50;;;;;;;;;;;;;;;;;;5005242;28;89504;-69
2023/09/17 14:38:15;;;;;;;;;;;;;;;;;;5003355;28;89276;-64
2023/09/17 14:40:41;;;;;;;;;;;;;;;;;;4992620;28;89631;-65
2023/09/17 14:43:06;;;;;;;;;;;;;;;;;;5004948;28;90760;-66
2023/09/17 14:45:32;;;;;;;;;;;;;;;;;;5005522;28;89525;-63
2023/09/17 14:47:57;;;;;;;;;;;;;;;;;;5006950;28;89190;-67
2023/09/17 14:50:23;;;;;;;;;;;;;;;;;;5007874;28;93344;-70
2023/09/17 14:52:48;;;;;;;;;;;;;;;;;;5004043;28;89886;-71
2023/09/17 14:55:13;;;;;;;;;;;;;;;;;;5009830;28;90150;-68
2023/09/17 14:57:40;;;;;;;;;;;;;;;;;;5006203;28;90725;-69
2023/09/17 15:00:06;;;;;;;;;;;;;;;;;;5005503;28;89096;-69
2023/09/17 15:02:32;;;;;;;;;;;;;;;;;;5005381;28;90635;-69
2023/09/17 15:04:57;;;;;;;;;;;;;;;;;;5005014;28;89403;-71
2023/09/17 15:07:22;;;;;;;;;;;;;;;;;;5007050;28;89649;-70
2023/09/17 15:09:48;;;;;;;;;;;;;;;;;;5007717;28;89462;-66
2023/09/17 15:12:13;;;;;;;;;;;;;;;;;;5005616;28;89996;-64
2023/09/17 15:14:38;;;;;;;;;;;;;;;;;;5002458;28;89887;-67
2023/09/17 15:17:04;;;;;;;;;;;;;;;;;;5006044;28;89760;-66
2023/09/17 15:19:29;;;;;;;;;;;;;;;;;;5003839;28;90732;-65
2023/09/17 15:21:55;;;;;;;;;;;;;;;;;;5002357;28;90376;-67
2023/09/17 15:24:20;;;;;;;;;;;;;;;;;;4991411;28;90270;-65
2023/09/17 15:26:45;;;;;;;;;;;;;;;;;;4991526;28;90254;-70
2023/09/17 15:29:13;;;;;;;;;;;;;;;;;;4989204;28;89657;-70
2023/09/17 15:31:38;;;;;;;;;;;;;;;;;;4992834;28;89540;-71
2023/09/17 15:34:06;;;;;;;;;;;;;;;;;;4994191;28;89810;-67
2023/09/17 15:36:31;;;;;;;;;;;;;;;;;;4990109;28;89482;-68
2023/09/17 15:38:57;;;;;;;;;;;;;;;;;;4993801;28;89263;-65
2023/09/17 15:41:22;;;;;;;;;;;;;;;;;;4992590;28;90196;-67
2023/09/17 15:43:47;;;;;;;;;;;;;;;;;;4993340;28;90422;-67
2023/09/17 15:46:12;;;;;;;;;;;;;;;;;;4991608;28;89315;-66
2023/09/17 15:48:38;;;;;;;;;;;;;;;;;;4989876;28;89745;-66
2023/09/17 15:51:03;;;;;;;;;;;;;;;;;;4990383;28;89761;-64
2023/09/17 15:53:30;;;;;;;;;;;;;;;;;;4995298;28;89582;-66
2023/09/17 15:55:56;;;;;;;;;;;;;;;;;;4998475;28;89834;-70
2023/09/17 15:58:21;;;;;;;;;;;;;;;;;;4997654;28;89475;-68
2023/09/17 16:00:46;;;;;;;;;;;;;;;;;;4993533;28;89277;-68
2023/09/17 16:03:12;;;;;;;;;;;;;;;;;;4995081;28;89687;-65
2023/09/17 16:05:38;;;;;;;;;;;;;;;;;;4989538;28;91187;-66
2023/09/17 16:08:03;;;;;;;;;;;;;;;;;;4992141;28;92077;-67
2023/09/17 16:10:29;;;;;;;;;;;;;;;;;;4989747;28;89022;-67
2023/09/17 16:12:54;;;;;;;;;;;;;;;;;;4991208;28;90493;-67
2023/09/17 16:15:19;;;;;;;;;;;;;;;;;;4986768;28;92416;-65
2023/09/17 16:17:44;;;;;;;;;;;;;;;;;;4994895;28;90426;-68
2023/09/17 16:20:10;;;;;;;;;;;;;;;;;;4993622;28;90109;-66
2023/09/17 16:22:35;;;;;;;;;;;;;;;;;;4996129;28;90764;-68
2023/09/17 16:25:03;;;;;;;;;;;;;;;;;;4993057;28;89996;-68
2023/09/17 16:27:29;;;;;;;;;;;;;;;;;;4993551;28;89509;-65
2023/09/17 16:29:54;;;;;;;;;;;;;;;;;;4995309;28;90122;-64
2023/09/17 16:32:19;;;;;;;;;;;;;;;;;;4996368;28;89157;-68
2023/09/17 16:34:47;;;;;;;;;;;;;;;;;;4991760;28;89664;-63
2023/09/17 16:37:13;;;;;;;;;;;;;;;;;;4992807;28;90252;-64
2023/09/17 16:39:38;;;;;;;;;;;;;;;;;;4993722;28;89126;-71
2023/09/17 16:42:03;;;;;;;;;;;;;;;;;;4992964;28;91251;-68
2023/09/17 16:44:28;;;;;;;;;;;;;;;;;;4989053;28;89110;-70
2023/09/17 16:46:54;;;;;;;;;;;;;;;;;;4987091;28;89521;-68
2023/09/17 16:49:19;;;;;;;;;;;;;;;;;;4987823;28;89834;-70
2023/09/17 16:51:46;;;;;;;;;;;;;;;;;;4986112;28;89439;-68
2023/09/17 16:54:12;;;;;;;;;;;;;;;;;;4988231;28;89529;-67
2023/09/17 16:56:37;;;;;;;;;;;;;;;;;;4987139;28;89876;-68
2023/09/17 16:59:03;;;;;;;;;;;;;;;;;;4987587;28;89722;-68
2023/09/17 17:01:32;;;;;;;;;;;;;;;;;;4988337;28;89543;-67
2023/09/17 17:03:57;;;;;;;;;;;;;;;;;;4990443;28;89328;-71
2023/09/17 17:06:22;;;;;;;;;;;;;;;;;;4987474;28;89613;-71
2023/09/17 17:08:47;;;;;;;;;;;;;;;;;;4987541;28;89033;-70
2023/09/17 17:11:13;;;;;;;;;;;;;;;;;;4988139;28;89101;-70
2023/09/17 17:13:38;;;;;;;;;;;;;;;;;;4987002;28;91246;-72
2023/09/17 17:16:04;;;;;;;;;;;;;;;;;;4987783;28;89575;-70
2023/09/17 17:18:30;;;;;;;;;;;;;;;;;;4988430;28;89017;-68
2023/09/17 17:20:55;;;;;;;;;;;;;;;;;;4987612;28;90664;-71
2023/09/17 17:23:20;;;;;;;;;;;;;;;;;;4987353;28;89053;-71
2023/09/17 17:25:46;;;;;;;;;;;;;;;;;;4992592;28;90668;-73
2023/09/17 17:28:11;;;;;;;;;;;;;;;;;;4984671;28;90389;-73
2023/09/17 17:30:36;;;;;;;;;;;;;;;;;;4985128;28;89319;-70
2023/09/17 17:33:02;;;;;;;;;;;;;;;;;;4987974;28;90640;-69
2023/09/17 17:35:27;;;;;;;;;;;;;;;;;;4987150;28;90222;-69
2023/09/17 17:37:53;;;;;;;;;;;;;;;;;;4986137;28;89455;-70
2023/09/17 17:40:22;;;;;;;;;;;;;;;;;;4987116;28;89630;-67
2023/09/17 17:42:48;;;;;;;;;;;;;;;;;;4986281;28;89633;-67
2023/09/17 17:45:14;;;;;;;;;;;;;;;;;;4986470;28;89526;-68
2023/09/17 17:47:39;;;;;;;;;;;;;;;;;;4990092;28;90090;-70
2023/09/17 17:50:04;;;;;;;;;;;;;;;;;;4986995;28;89400;-69
2023/09/17 17:52:30;;;;;;;;;;;;;;;;;;4990804;28;89782;-66
2023/09/17 17:54:55;;;;;;;;;;;;;;;;;;4986541;28;90717;-67
2023/09/17 17:57:21;;;;;;;;;;;;;;;;;;4987158;28;90748;-69
2023/09/17 17:59:46;;;;;;;;;;;;;;;;;;4987371;28;89709;-68
2023/09/17 18:02:12;;;;;;;;;;;;;;;;;;4988237;28;89482;-75
2023/09/17 18:04:37;;;;;;;;;;;;;;;;;;4977297;28;89104;-75
2023/09/17 18:07:03;;;;;;;;;;;;;;;;;;4987041;28;89660;-73
2023/09/17 18:09:29;;;;;;;;;;;;;;;;;;4989148;28;89864;-67
2023/09/17 18:11:55;;;;;;;;;;;;;;;;;;4986474;28;90841;-66
2023/09/17 18:14:21;;;;;;;;;;;;;;;;;;4986522;28;89170;-68
2023/09/17 18:16:46;;;;;;;;;;;;;;;;;;4985393;28;89215;-65
2023/09/17 18:19:11;;;;;;;;;;;;;;;;;;4986393;28;89660;-66
2023/09/17 18:21:36;;;;;;;;;;;;;;;;;;4990236;28;89163;-69
2023/09/17 18:24:02;;;;;;;;;;;;;;;;;;4986213;28;89122;-70
2023/09/17 18:26:27;;;;;;;;;;;;;;;;;;4986132;28;89738;-68
2023/09/17 18:28:56;;;;;;;;;;;;;;;;;;4988439;28;89273;-66
2023/09/17 18:31:22;;;;;;;;;;;;;;;;;;4986372;28;89654;-68
2023/09/17 18:33:47;;;;;;;;;;;;;;;;;;4982438;28;89430;-71
2023/09/17 18:36:12;;;;;;;;;;;;;;;;;;4986727;28;89240;-72
2023/09/17 18:38:37;;;;;;;;;;;;;;;;;;4984438;28;89896;-70
2023/09/17 18:41:03;;;;;;;;;;;;;;;;;;4984254;28;89653;-69
2023/09/17 18:43:28;;;;;;;;;;;;;;;;;;4986068;28;89758;-73
2023/09/17 18:45:53;;;;;;;;;;;;;;;;;;4978253;28;89588;-68
2023/09/17 18:48:18;;;;;;;;;;;;;;;;;;4974490;28;89835;-69
2023/09/17 18:50:44;;;;;;;;;;;;;;;;;;4988917;28;89589;-68
2023/09/17 18:53:09;;;;;;;;;;;;;;;;;;4985790;28;90460;-63
2023/09/17 18:55:34;;;;;;;;;;;;;;;;;;4986435;28;89970;-64
2023/09/17 18:57:59;;;;;;;;;;;;;;;;;;4981295;28;90850;-79
2023/09/17 19:00:24;;;;;;;;;;;;;;;;;;4997822;28;89201;-80
2023/09/17 19:02:50;;;;;;;;;;;;;;;;;;4990190;28;89198;-67
2023/09/17 19:05:15;;;;;;;;;;;;;;;;;;4989696;28;89610;-77
2023/09/17 19:07:41;;;;;;;;;;;;;;;;;;4981956;28;89722;-70
2023/09/17 19:10:14;;;;;;;;;;;;;;;;;;4986481;28;90147;-72
2023/09/17 19:12:40;;;;;;;;;;;;;;;;;;4988445;28;90751;-77
2023/09/17 19:15:06;;;;;;;;;;;;;;;;;;4988187;28;89158;-71
2023/09/17 19:17:32;;;;;;;;;;;;;;;;;;4988641;28;91075;-70
2023/09/17 19:19:57;;;;;;;;;;;;;;;;;;4987537;28;90853;-65
2023/09/17 19:22:22;;;;;;;;;;;;;;;;;;4988781;28;90742;-77
2023/09/17 19:24:47;;;;;;;;;;;;;;;;;;4988333;28;89968;-67
2023/09/17 19:27:14;;;;;;;;;;;;;;;;;;4987927;28;90596;-78
2023/09/17 19:29:39;;;;;;;;;;;;;;;;;;4985926;28;89458;-77
2023/09/17 19:32:05;;;;;;;;;;;;;;;;;;4988786;28;89541;-78
2023/09/17 19:34:30;;;;;;;;;;;;;;;;;;4993905;28;89667;-74
2023/09/17 19:36:55;;;;;;;;;;;;;;;;;;4987903;28;89575;-78
2023/09/17 19:39:20;;;;;;;;;;;;;;;;;;4987694;28;89872;-70
2023/09/17 19:41:46;;;;;;;;;;;;;;;;;;4987838;28;89568;-73
2023/09/17 19:44:12;;;;;;;;;;;;;;;;;;4988555;28;89762;-76
2023/09/17 19:46:38;;;;;;;;;;;;;;;;;;4988268;28;90382;-68
2023/09/17 19:49:03;;;;;;;;;;;;;;;;;;4988352;28;89221;-70
2023/09/17 19:51:33;;;;;;;;;;;;;;;;;;4986083;28;89979;-69
2023/09/17 19:53:59;;;;;;;;;;;;;;;;;;4987474;28;90691;-74
2023/09/17 19:56:24;;;;;;;;;;;;;;;;;;4990978;28;89854;-79
2023/09/17 19:58:49;;;;;;;;;;;;;;;;;;4987807;28;90153;-71
2023/09/17 20:01:15;;;;;;;;;;;;;;;;;;4999075;28;89056;-76
2023/09/17 20:03:40;;;;;;;;;;;;;;;;;;4986709;28;89525;-75
2023/09/17 20:06:05;;;;;;;;;;;;;;;;;;4988693;28;89982;-72
2023/09/17 20:08:31;;;;;;;;;;;;;;;;;;4987955;28;89876;-66
2023/09/17 20:10:56;;;;;;;;;;;;;;;;;;4988636;28;90221;-70
2023/09/17 20:13:23;;;;;;;;;;;;;;;;;;4990922;28;90951;-70
2023/09/17 20:15:49;;;;;;;;;;;;;;;;;;4989933;28;89469;-68
2023/09/17 20:18:14;;;;;;;;;;;;;;;;;;4991680;28;89618;-65
2023/09/17 20:20:39;;;;;;;;;;;;;;;;;;4990213;28;89843;-73
2023/09/17 20:23:04;;;;;;;;;;;;;;;;;;4988095;28;90039;-74
2023/09/17 20:25:29;;;;;;;;;;;;;;;;;;4987216;28;90243;-78
2023/09/17 20:27:55;;;;;;;;;;;;;;;;;;4987184;28;89079;-76
2023/09/17 20:30:21;;;;;;;;;;;;;;;;;;4988507;28;91007;-79
2023/09/17 20:32:46;;;;;;;;;;;;;;;;;;4987722;28;89216;-80
2023/09/17 20:35:12;;;;;;;;;;;;;;;;;;4983314;28;89995;-73
2023/09/17 20:37:37;;;;;;;;;;;;;;;;;;4989978;28;89699;-80
2023/09/17 20:40:02;;;;;;;;;;;;;;;;;;4987265;28;89395;-78
2023/09/17 20:42:28;;;;;;;;;;;;;;;;;;4987331;28;89455;-76
2023/09/17 20:44:53;;;;;;;;;;;;;;;;;;4986853;28;89804;-73
2023/09/17 20:47:18;;;;;;;;;;;;;;;;;;4992841;28;89637;-74
2023/09/17 20:49:44;;;;;;;;;;;;;;;;;;4991991;28;89535;-78
2023/09/17 20:52:09;;;;;;;;;;;;;;;;;;4993552;28;90090;-74
2023/09/17 20:54:34;;;;;;;;;;;;;;;;;;4992321;28;89109;-71
2023/09/17 20:56:59;;;;;;;;;;;;;;;;;;4992741;28;89622;-73
2023/09/17 20:59:25;;;;;;;;;;;;;;;;;;4991410;28;90178;-66
2023/09/17 21:01:50;;;;;;;;;;;;;;;;;;4993460;28;90319;-64
2023/09/17 21:04:15;;;;;;;;;;;;;;;;;;4995220;28;89328;-64
2023/09/17 21:06:40;;;;;;;;;;;;;;;;;;5023976;27;89979;-68
2023/09/17 21:09:06;;;;;;;;;;;;;;;;;;4993720;28;89745;-69
2023/09/17 21:11:31;;;;;;;;;;;;;;;;;;4991555;28;90289;-75
2023/09/17 21:13:57;;;;;;;;;;;;;;;;;;4990399;28;90170;-71
2023/09/17 21:16:22;;;;;;;;;;;;;;;;;;4989407;28;89970;-70
2023/09/17 21:18:48;;;;;;;;;;;;;;;;;;4994138;28;90461;-73
2023/09/17 21:21:13;;;;;;;;;;;;;;;;;;4993293;28;89398;-70
2023/09/17 21:23:39;;;;;;;;;;;;;;;;;;4996926;28;90294;-70
2023/09/17 21:26:11;;;;;;;;;;;;;;;;;;4995214;28;89396;-74
2023/09/17 21:28:37;;;;;;;;;;;;;;;;;;4993902;28;90063;-75
2023/09/17 21:31:02;;;;;;;;;;;;;;;;;;4993389;28;92518;-76
2023/09/17 21:33:28;;;;;;;;;;;;;;;;;;4993943;28;89475;-76
2023/09/17 21:35:53;;;;;;;;;;;;;;;;;;4991298;28;89482;-74
2023/09/17 21:38:18;;;;;;;;;;;;;;;;;;4990027;28;89386;-79
2023/09/17 21:40:44;;;;;;;;;;;;;;;;;;4992743;28;89490;-69
2023/09/17 21:43:09;;;;;;;;;;;;;;;;;;4983251;28;93417;-74
2023/09/17 21:45:34;;;;;;;;;;;;;;;;;;4990179;28;89098;-72